Terminal Aerodrome Forecast
Issued by NWS

Home | Current Version | Previous Version | Text Only | Print | Product List | Glossary On
Versions: 1 2 3 4 5 6 7 8 9 10 11 12 13 14 15 16 17
000
FTUS43 KAPX 291857 AAC
TAFMBL
TAF AMD
KMBL 291857Z 2919/3018 33010KT P6SM SCT090
     FM292200 35007KT P6SM SCT090
     FM300500 09004KT P6SM SCT250
     FM301700 04008KT P6SM SCT250
      AMD LTD TO CLD VIS AND WIND=

USA.gov is the U.S. government's official web portal to all federal, state and local government web resources and services.